Gloucester, North Carolina
Current Conditions -  °F | °C
As of 10:58 AM on Monday 22 Dec 2014 (Local Time) from KMRH Reporting Station
Overcast Overcast  
Wind Chill: 51°   Ceiling: 400
Heat Index: 51°   Visibility: 10mi
Dew Point: 51°   Wind: 10mph
Humidity: 100%   Direction: 360°N
Pressure: 30.04"   Gusts: NA
Location:  34.73°N, 76.54°W
Report Text: KMRH 221558Z AUTO 36009KT 10SM BKN004 OVC012 11/11 A3004 RMK AO2 RAB13E25 SLP171 P0000 I1000 T01060106 TSNO
Loading
Personal Weather Stations






























Interactive Weather Map New forecast layout! Learn more

10-Day Weather Forecast

Advertisements
Track Severe Weather on mobile